Prados, Brazil
Current Conditions -  °F | °C
As of 12:00 PM on Friday 31 Oct 2014 (Local Time) from SBBQ Reporting Station
Broken Clouds Broken Clouds  
Wind Chill: 77°   Ceiling: 2500
Heat Index: 79°   Visibility: 6mi
Dew Point: 61°   Wind: 6mph
Humidity: 57%   Direction: 300°WNW
Pressure: 30.18"   Gusts: NA
Location:  21.06°S, 44.08°W
Report Text: SBBQ 311400Z 30005KT 9999 BKN025 FEW030TCU 25/16 Q1022
Loading
Personal Weather Stations






























Interactive Weather Map
Tropical Storm Tracking
New forecast layout! Learn more

10-Day Weather Forecast

Advertisements
Track Severe Weather on mobile